sensor_id;sensor_type;location;lat;lon;timestamp;temperature;humidity
7654;DHT22;3869;48.406;10.774;2023-12-07T00:01:22;1.40;99.90
7654;DHT22;3869;48.406;10.774;2023-12-07T00:03:50;1.40;99.90
7654;DHT22;3869;48.406;10.774;2023-12-07T00:06:18;1.50;99.90
7654;DHT22;3869;48.406;10.774;2023-12-07T00:08:47;1.40;99.90
7654;DHT22;3869;48.406;10.774;2023-12-07T00:11:15;1.50;99.90
7654;DHT22;3869;48.406;10.774;2023-12-07T00:13:43;1.50;99.90
7654;DHT22;3869;48.406;10.774;2023-12-07T00:16:11;1.60;99.90
7654;DHT22;3869;48.406;10.774;2023-12-07T00:18:39;1.60;99.90
7654;DHT22;3869;48.406;10.774;2023-12-07T00:21:08;1.60;99.90
7654;DHT22;3869;48.406;10.774;2023-12-07T00:23:36;1.60;99.90
7654;DHT22;3869;48.406;10.774;2023-12-07T00:26:04;1.60;99.90
7654;DHT22;3869;48.406;10.774;2023-12-07T00:28:34;1.60;99.90
7654;DHT22;3869;48.406;10.774;2023-12-07T00:31:02;1.60;99.90
7654;DHT22;3869;48.406;10.774;2023-12-07T00:33:30;1.60;99.90
7654;DHT22;3869;48.406;10.774;2023-12-07T00:35:58;1.60;99.90
7654;DHT22;3869;48.406;10.774;2023-12-07T00:38:26;1.60;99.90
7654;DHT22;3869;48.406;10.774;2023-12-07T00:40:54;1.70;99.90
7654;DHT22;3869;48.406;10.774;2023-12-07T00:43:22;1.70;99.90
7654;DHT22;3869;48.406;10.774;2023-12-07T00:45:51;1.70;99.90
7654;DHT22;3869;48.406;10.774;2023-12-07T00:48:19;1.70;99.90
7654;DHT22;3869;48.406;10.774;2023-12-07T00:50:47;1.70;99.90
7654;DHT22;3869;48.406;10.774;2023-12-07T00:53:15;1.70;99.90
7654;DHT22;3869;48.406;10.774;2023-12-07T00:55:43;1.70;99.90
7654;DHT22;3869;48.406;10.774;2023-12-07T00:58:11;1.70;99.90
7654;DHT22;3869;48.406;10.774;2023-12-07T01:00:40;1.70;99.90
7654;DHT22;3869;48.406;10.774;2023-12-07T01:03:10;1.70;99.90
7654;DHT22;3869;48.406;10.774;2023-12-07T01:05:38;1.70;99.90
7654;DHT22;3869;48.406;10.774;2023-12-07T01:08:06;1.70;99.90
7654;DHT22;3869;48.406;10.774;2023-12-07T01:10:34;1.70;99.90
7654;DHT22;3869;48.406;10.774;2023-12-07T01:13:02;1.80;99.90
7654;DHT22;3869;48.406;10.774;2023-12-07T01:15:30;1.80;99.90
7654;DHT22;3869;48.406;10.774;2023-12-07T01:17:58;1.80;99.90
7654;DHT22;3869;48.406;10.774;2023-12-07T01:20:28;1.80;99.90
7654;DHT22;3869;48.406;10.774;2023-12-07T01:22:56;1.80;99.90
7654;DHT22;3869;48.406;10.774;2023-12-07T01:25:24;1.80;99.90
7654;DHT22;3869;48.406;10.774;2023-12-07T01:27:52;1.80;99.90
7654;DHT22;3869;48.406;10.774;2023-12-07T01:30:20;1.80;99.90
7654;DHT22;3869;48.406;10.774;2023-12-07T01:32:48;1.90;99.90
7654;DHT22;3869;48.406;10.774;2023-12-07T01:35:16;1.80;99.90
7654;DHT22;3869;48.406;10.774;2023-12-07T01:37:45;1.80;99.90
7654;DHT22;3869;48.406;10.774;2023-12-07T01:40:15;1.90;99.90
7654;DHT22;3869;48.406;10.774;2023-12-07T01:42:49;1.90;99.90
7654;DHT22;3869;48.406;10.774;2023-12-07T01:45:18;1.80;99.90
7654;DHT22;3869;48.406;10.774;2023-12-07T01:47:47;2.20;99.90
7654;DHT22;3869;48.406;10.774;2023-12-07T01:50:16;1.90;99.90
7654;DHT22;3869;48.406;10.774;2023-12-07T01:52:56;1.90;99.90
7654;DHT22;3869;48.406;10.774;2023-12-07T01:55:25;1.90;99.90
7654;DHT22;3869;48.406;10.774;2023-12-07T01:57:54;1.90;99.90
7654;DHT22;3869;48.406;10.774;2023-12-07T02:00:22;1.90;99.90
7654;DHT22;3869;48.406;10.774;2023-12-07T02:02:51;1.90;99.90
7654;DHT22;3869;48.406;10.774;2023-12-07T02:05:19;1.80;99.90
7654;DHT22;3869;48.406;10.774;2023-12-07T02:07:48;1.80;99.90
7654;DHT22;3869;48.406;10.774;2023-12-07T02:10:19;1.80;99.90
7654;DHT22;3869;48.406;10.774;2023-12-07T02:12:47;1.80;99.90
7654;DHT22;3869;48.406;10.774;2023-12-07T02:15:16;1.80;99.90
7654;DHT22;3869;48.406;10.774;2023-12-07T02:17:51;1.80;99.90
7654;DHT22;3869;48.406;10.774;2023-12-07T02:20:26;1.80;99.90
7654;DHT22;3869;48.406;10.774;2023-12-07T02:23:00;1.80;99.90
7654;DHT22;3869;48.406;10.774;2023-12-07T02:25:35;1.80;99.90
7654;DHT22;3869;48.406;10.774;2023-12-07T02:28:06;1.80;99.90
7654;DHT22;3869;48.406;10.774;2023-12-07T02:30:34;1.80;99.90
7654;DHT22;3869;48.406;10.774;2023-12-07T02:33:02;1.80;99.90
7654;DHT22;3869;48.406;10.774;2023-12-07T02:35:33;1.80;99.90
7654;DHT22;3869;48.406;10.774;2023-12-07T02:38:02;1.80;99.90
7654;DHT22;3869;48.406;10.774;2023-12-07T02:40:31;1.70;99.90
7654;DHT22;3869;48.406;10.774;2023-12-07T02:43:00;1.70;99.90
7654;DHT22;3869;48.406;10.774;2023-12-07T02:45:31;1.60;99.90
7654;DHT22;3869;48.406;10.774;2023-12-07T02:48:00;1.60;99.90
7654;DHT22;3869;48.406;10.774;2023-12-07T02:50:28;1.50;99.90
7654;DHT22;3869;48.406;10.774;2023-12-07T02:52:56;1.50;99.90
7654;DHT22;3869;48.406;10.774;2023-12-07T02:55:24;1.50;99.90
7654;DHT22;3869;48.406;10.774;2023-12-07T02:57:52;1.50;99.90
7654;DHT22;3869;48.406;10.774;2023-12-07T03:00:20;1.50;99.90
7654;DHT22;3869;48.406;10.774;2023-12-07T03:02:50;1.50;99.90
7654;DHT22;3869;48.406;10.774;2023-12-07T03:05:18;1.60;99.90
7654;DHT22;3869;48.406;10.774;2023-12-07T03:07:49;1.60;99.90
7654;DHT22;3869;48.406;10.774;2023-12-07T03:10:18;1.50;99.90
7654;DHT22;3869;48.406;10.774;2023-12-07T03:12:46;1.50;99.90
7654;DHT22;3869;48.406;10.774;2023-12-07T03:15:14;1.50;99.90
7654;DHT22;3869;48.406;10.774;2023-12-07T03:17:42;1.50;99.90
7654;DHT22;3869;48.406;10.774;2023-12-07T03:20:12;1.50;99.90
7654;DHT22;3869;48.406;10.774;2023-12-07T03:22:41;1.40;99.90
7654;DHT22;3869;48.406;10.774;2023-12-07T03:25:09;1.40;99.90
7654;DHT22;3869;48.406;10.774;2023-12-07T03:27:37;1.40;99.90
7654;DHT22;3869;48.406;10.774;2023-12-07T03:30:06;1.30;99.90
7654;DHT22;3869;48.406;10.774;2023-12-07T03:32:34;1.20;99.90
7654;DHT22;3869;48.406;10.774;2023-12-07T03:35:03;1.20;99.90
7654;DHT22;3869;48.406;10.774;2023-12-07T03:37:32;1.20;99.90
7654;DHT22;3869;48.406;10.774;2023-12-07T03:40:00;1.20;99.90
7654;DHT22;3869;48.406;10.774;2023-12-07T03:42:31;1.10;99.90
7654;DHT22;3869;48.406;10.774;2023-12-07T03:45:19;1.10;99.90
7654;DHT22;3869;48.406;10.774;2023-12-07T03:47:47;1.10;99.90
7654;DHT22;3869;48.406;10.774;2023-12-07T03:50:15;1.10;99.90
7654;DHT22;3869;48.406;10.774;2023-12-07T03:52:45;1.10;99.90
7654;DHT22;3869;48.406;10.774;2023-12-07T03:55:13;1.00;99.90
7654;DHT22;3869;48.406;10.774;2023-12-07T03:57:41;1.00;99.90
7654;DHT22;3869;48.406;10.774;2023-12-07T04:00:11;0.90;99.90
7654;DHT22;3869;48.406;10.774;2023-12-07T04:02:40;0.90;99.90
7654;DHT22;3869;48.406;10.774;2023-12-07T04:05:08;0.80;99.90
7654;DHT22;3869;48.406;10.774;2023-12-07T04:07:36;0.60;99.90
7654;DHT22;3869;48.406;10.774;2023-12-07T04:10:06;0.60;99.90
7654;DHT22;3869;48.406;10.774;2023-12-07T04:12:35;0.50;99.90
7654;DHT22;3869;48.406;10.774;2023-12-07T04:15:04;0.40;99.90
7654;DHT22;3869;48.406;10.774;2023-12-07T04:17:32;0.30;99.90
7654;DHT22;3869;48.406;10.774;2023-12-07T04:20:00;0.30;99.90
7654;DHT22;3869;48.406;10.774;2023-12-07T04:22:28;0.30;99.90
7654;DHT22;3869;48.406;10.774;2023-12-07T04:24:56;0.20;99.90
7654;DHT22;3869;48.406;10.774;2023-12-07T04:27:26;0.20;99.90
7654;DHT22;3869;48.406;10.774;2023-12-07T04:29:54;0.20;99.90
7654;DHT22;3869;48.406;10.774;2023-12-07T04:32:22;0.20;99.90
7654;DHT22;3869;48.406;10.774;2023-12-07T04:34:50;0.20;99.90
7654;DHT22;3869;48.406;10.774;2023-12-07T04:37:19;0.10;99.90
7654;DHT22;3869;48.406;10.774;2023-12-07T04:39:47;0.00;99.90
7654;DHT22;3869;48.406;10.774;2023-12-07T04:42:15;0.00;99.90
7654;DHT22;3869;48.406;10.774;2023-12-07T04:44:44;-0.10;99.90
7654;DHT22;3869;48.406;10.774;2023-12-07T04:47:12;-0.10;99.90
7654;DHT22;3869;48.406;10.774;2023-12-07T04:49:40;-0.10;99.90
7654;DHT22;3869;48.406;10.774;2023-12-07T04:52:08;-0.10;99.90
7654;DHT22;3869;48.406;10.774;2023-12-07T04:54:36;0.00;99.90
7654;DHT22;3869;48.406;10.774;2023-12-07T04:57:05;-0.10;99.90
7654;DHT22;3869;48.406;10.774;2023-12-07T04:59:34;-0.10;99.90
7654;DHT22;3869;48.406;10.774;2023-12-07T05:02:06;-0.20;99.90
7654;DHT22;3869;48.406;10.774;2023-12-07T05:04:34;-0.30;99.90
7654;DHT22;3869;48.406;10.774;2023-12-07T05:07:02;-0.40;99.90
7654;DHT22;3869;48.406;10.774;2023-12-07T05:09:31;-0.40;99.90
7654;DHT22;3869;48.406;10.774;2023-12-07T05:11:59;-0.40;99.90
7654;DHT22;3869;48.406;10.774;2023-12-07T05:14:27;-0.40;99.90
7654;DHT22;3869;48.406;10.774;2023-12-07T05:16:55;-0.40;99.90
7654;DHT22;3869;48.406;10.774;2023-12-07T05:19:25;-0.40;99.90
7654;DHT22;3869;48.406;10.774;2023-12-07T05:21:53;-0.40;99.90
7654;DHT22;3869;48.406;10.774;2023-12-07T05:24:21;-0.40;99.90
7654;DHT22;3869;48.406;10.774;2023-12-07T05:26:49;-0.40;99.90
7654;DHT22;3869;48.406;10.774;2023-12-07T05:29:17;-0.40;99.90
7654;DHT22;3869;48.406;10.774;2023-12-07T05:31:48;-0.50;99.90
7654;DHT22;3869;48.406;10.774;2023-12-07T05:34:16;-0.60;99.90
7654;DHT22;3869;48.406;10.774;2023-12-07T05:36:46;-0.50;99.90
7654;DHT22;3869;48.406;10.774;2023-12-07T05:39:14;-0.50;99.90
7654;DHT22;3869;48.406;10.774;2023-12-07T05:41:44;-0.40;99.90
7654;DHT22;3869;48.406;10.774;2023-12-07T05:44:14;-0.40;99.90
7654;DHT22;3869;48.406;10.774;2023-12-07T05:46:48;-0.40;99.90
7654;DHT22;3869;48.406;10.774;2023-12-07T05:49:17;-0.40;99.90
7654;DHT22;3869;48.406;10.774;2023-12-07T05:51:46;-0.40;99.90
7654;DHT22;3869;48.406;10.774;2023-12-07T05:54:15;-0.50;99.90
7654;DHT22;3869;48.406;10.774;2023-12-07T05:56:43;-0.50;99.90
7654;DHT22;3869;48.406;10.774;2023-12-07T05:59:13;-0.50;99.90
7654;DHT22;3869;48.406;10.774;2023-12-07T06:01:41;-0.40;99.90
7654;DHT22;3869;48.406;10.774;2023-12-07T06:04:10;-0.40;99.90
7654;DHT22;3869;48.406;10.774;2023-12-07T06:06:39;-0.40;99.90
7654;DHT22;3869;48.406;10.774;2023-12-07T06:09:08;-0.40;99.90
7654;DHT22;3869;48.406;10.774;2023-12-07T06:11:37;-0.40;99.90
7654;DHT22;3869;48.406;10.774;2023-12-07T06:14:05;-0.40;99.90
7654;DHT22;3869;48.406;10.774;2023-12-07T06:16:34;-0.50;99.90
7654;DHT22;3869;48.406;10.774;2023-12-07T06:19:02;-0.50;99.90
7654;DHT22;3869;48.406;10.774;2023-12-07T06:21:31;-0.40;99.90
7654;DHT22;3869;48.406;10.774;2023-12-07T06:24:00;-0.40;99.90
7654;DHT22;3869;48.406;10.774;2023-12-07T06:26:29;-0.40;99.90
7654;DHT22;3869;48.406;10.774;2023-12-07T06:28:57;-0.40;99.90
7654;DHT22;3869;48.406;10.774;2023-12-07T06:31:25;-0.30;99.90
7654;DHT22;3869;48.406;10.774;2023-12-07T06:33:54;-0.30;99.90
7654;DHT22;3869;48.406;10.774;2023-12-07T06:36:23;-0.20;99.90
7654;DHT22;3869;48.406;10.774;2023-12-07T06:38:53;-0.20;99.90
7654;DHT22;3869;48.406;10.774;2023-12-07T06:41:21;-0.20;99.90
7654;DHT22;3869;48.406;10.774;2023-12-07T06:43:51;-0.20;99.90
7654;DHT22;3869;48.406;10.774;2023-12-07T06:46:22;-0.20;99.90
7654;DHT22;3869;48.406;10.774;2023-12-07T06:48:50;-0.10;99.90
7654;DHT22;3869;48.406;10.774;2023-12-07T06:51:18;-0.10;99.90
7654;DHT22;3869;48.406;10.774;2023-12-07T06:53:46;-0.20;99.90
7654;DHT22;3869;48.406;10.774;2023-12-07T06:56:14;-0.20;99.90
7654;DHT22;3869;48.406;10.774;2023-12-07T06:58:42;-0.30;99.90
7654;DHT22;3869;48.406;10.774;2023-12-07T07:01:13;-0.30;99.90
7654;DHT22;3869;48.406;10.774;2023-12-07T07:03:41;-0.30;99.90
7654;DHT22;3869;48.406;10.774;2023-12-07T07:06:10;-0.30;99.90
7654;DHT22;3869;48.406;10.774;2023-12-07T07:08:38;-0.20;99.90
7654;DHT22;3869;48.406;10.774;2023-12-07T07:11:11;-0.10;99.90
7654;DHT22;3869;48.406;10.774;2023-12-07T07:13:40;0.00;99.90
7654;DHT22;3869;48.406;10.774;2023-12-07T07:16:08;0.00;99.90
7654;DHT22;3869;48.406;10.774;2023-12-07T07:18:39;0.10;99.90
7654;DHT22;3869;48.406;10.774;2023-12-07T07:21:07;0.10;99.90
7654;DHT22;3869;48.406;10.774;2023-12-07T07:23:36;0.20;99.90
7654;DHT22;3869;48.406;10.774;2023-12-07T07:26:04;0.20;99.90
7654;DHT22;3869;48.406;10.774;2023-12-07T07:28:32;0.30;99.90
7654;DHT22;3869;48.406;10.774;2023-12-07T07:31:01;0.30;99.90
7654;DHT22;3869;48.406;10.774;2023-12-07T07:33:30;0.40;99.90
7654;DHT22;3869;48.406;10.774;2023-12-07T07:36:00;0.40;99.90
7654;DHT22;3869;48.406;10.774;2023-12-07T07:38:28;0.40;99.90
7654;DHT22;3869;48.406;10.774;2023-12-07T07:40:56;0.50;99.90
7654;DHT22;3869;48.406;10.774;2023-12-07T07:43:24;0.50;99.90
7654;DHT22;3869;48.406;10.774;2023-12-07T07:45:52;0.60;99.90
7654;DHT22;3869;48.406;10.774;2023-12-07T07:48:20;0.60;99.90
7654;DHT22;3869;48.406;10.774;2023-12-07T07:50:48;0.60;99.90
7654;DHT22;3869;48.406;10.774;2023-12-07T07:53:18;0.60;99.90
7654;DHT22;3869;48.406;10.774;2023-12-07T07:55:46;0.60;99.90
7654;DHT22;3869;48.406;10.774;2023-12-07T07:58:14;0.70;99.90
7654;DHT22;3869;48.406;10.774;2023-12-07T08:00:42;0.70;99.90
7654;DHT22;3869;48.406;10.774;2023-12-07T08:03:13;0.60;99.90
7654;DHT22;3869;48.406;10.774;2023-12-07T08:05:41;0.60;99.90
7654;DHT22;3869;48.406;10.774;2023-12-07T08:08:09;0.70;99.90
7654;DHT22;3869;48.406;10.774;2023-12-07T08:10:39;0.70;99.90
7654;DHT22;3869;48.406;10.774;2023-12-07T08:13:22;0.70;99.90
7654;DHT22;3869;48.406;10.774;2023-12-07T08:15:50;0.70;99.90
7654;DHT22;3869;48.406;10.774;2023-12-07T08:18:23;0.70;99.90
7654;DHT22;3869;48.406;10.774;2023-12-07T08:20:52;0.70;99.90
7654;DHT22;3869;48.406;10.774;2023-12-07T08:23:21;0.70;99.90
7654;DHT22;3869;48.406;10.774;2023-12-07T08:25:50;0.70;99.90
7654;DHT22;3869;48.406;10.774;2023-12-07T08:28:18;0.70;99.90
7654;DHT22;3869;48.406;10.774;2023-12-07T08:30:47;0.70;99.90
7654;DHT22;3869;48.406;10.774;2023-12-07T08:33:15;0.70;99.90
7654;DHT22;3869;48.406;10.774;2023-12-07T08:35:43;0.70;99.90
7654;DHT22;3869;48.406;10.774;2023-12-07T08:38:12;0.70;99.90
7654;DHT22;3869;48.406;10.774;2023-12-07T08:40:40;0.70;99.90
7654;DHT22;3869;48.406;10.774;2023-12-07T08:43:10;0.70;99.90
7654;DHT22;3869;48.406;10.774;2023-12-07T08:45:38;0.70;99.90
7654;DHT22;3869;48.406;10.774;2023-12-07T08:48:07;0.80;99.90
7654;DHT22;3869;48.406;10.774;2023-12-07T08:50:35;0.80;99.90
7654;DHT22;3869;48.406;10.774;2023-12-07T08:53:03;0.80;99.90
7654;DHT22;3869;48.406;10.774;2023-12-07T08:55:32;0.80;99.90
7654;DHT22;3869;48.406;10.774;2023-12-07T08:58:00;0.90;99.90
7654;DHT22;3869;48.406;10.774;2023-12-07T09:00:32;0.80;99.90
7654;DHT22;3869;48.406;10.774;2023-12-07T09:03:01;0.90;99.90
7654;DHT22;3869;48.406;10.774;2023-12-07T09:05:29;0.90;99.90
7654;DHT22;3869;48.406;10.774;2023-12-07T09:07:58;1.00;99.90
7654;DHT22;3869;48.406;10.774;2023-12-07T09:10:26;1.00;99.90
7654;DHT22;3869;48.406;10.774;2023-12-07T09:12:55;1.00;99.90
7654;DHT22;3869;48.406;10.774;2023-12-07T09:15:23;1.00;99.90
7654;DHT22;3869;48.406;10.774;2023-12-07T09:17:52;1.00;99.90
7654;DHT22;3869;48.406;10.774;2023-12-07T09:20:21;1.10;99.90
7654;DHT22;3869;48.406;10.774;2023-12-07T09:22:50;1.10;99.90
7654;DHT22;3869;48.406;10.774;2023-12-07T09:25:18;1.10;99.90
7654;DHT22;3869;48.406;10.774;2023-12-07T09:27:46;1.20;99.90
7654;DHT22;3869;48.406;10.774;2023-12-07T09:30:15;1.20;99.90
7654;DHT22;3869;48.406;10.774;2023-12-07T09:32:43;1.20;99.90
7654;DHT22;3869;48.406;10.774;2023-12-07T09:35:13;1.20;99.90
7654;DHT22;3869;48.406;10.774;2023-12-07T09:37:47;1.30;99.90
7654;DHT22;3869;48.406;10.774;2023-12-07T09:40:16;1.30;99.90
7654;DHT22;3869;48.406;10.774;2023-12-07T09:42:48;1.30;99.90
7654;DHT22;3869;48.406;10.774;2023-12-07T09:45:18;1.30;99.90
7654;DHT22;3869;48.406;10.774;2023-12-07T09:47:48;1.30;99.90
7654;DHT22;3869;48.406;10.774;2023-12-07T09:50:19;1.30;99.90
7654;DHT22;3869;48.406;10.774;2023-12-07T09:52:49;1.30;99.90
7654;DHT22;3869;48.406;10.774;2023-12-07T09:55:30;1.40;99.90
7654;DHT22;3869;48.406;10.774;2023-12-07T09:58:00;1.40;99.90
7654;DHT22;3869;48.406;10.774;2023-12-07T10:00:29;1.50;99.90
7654;DHT22;3869;48.406;10.774;2023-12-07T10:02:57;1.50;99.90
7654;DHT22;3869;48.406;10.774;2023-12-07T10:05:26;1.50;99.90
7654;DHT22;3869;48.406;10.774;2023-12-07T10:07:55;1.50;99.90
7654;DHT22;3869;48.406;10.774;2023-12-07T10:10:24;1.60;99.90
7654;DHT22;3869;48.406;10.774;2023-12-07T10:12:53;1.60;99.90
7654;DHT22;3869;48.406;10.774;2023-12-07T10:15:23;1.60;99.90
7654;DHT22;3869;48.406;10.774;2023-12-07T10:17:53;1.60;99.90
7654;DHT22;3869;48.406;10.774;2023-12-07T10:20:23;1.60;99.90
7654;DHT22;3869;48.406;10.774;2023-12-07T10:23:02;1.70;99.90
7654;DHT22;3869;48.406;10.774;2023-12-07T10:25:31;1.70;99.90
7654;DHT22;3869;48.406;10.774;2023-12-07T10:28:00;1.70;99.90
7654;DHT22;3869;48.406;10.774;2023-12-07T10:30:33;1.70;99.90
7654;DHT22;3869;48.406;10.774;2023-12-07T10:33:03;1.80;99.90
7654;DHT22;3869;48.406;10.774;2023-12-07T10:35:31;1.80;99.90
7654;DHT22;3869;48.406;10.774;2023-12-07T10:37:59;1.90;99.90
7654;DHT22;3869;48.406;10.774;2023-12-07T10:40:29;1.90;99.90
7654;DHT22;3869;48.406;10.774;2023-12-07T10:42:58;1.90;99.90
7654;DHT22;3869;48.406;10.774;2023-12-07T10:45:30;2.00;99.90
7654;DHT22;3869;48.406;10.774;2023-12-07T10:48:02;2.00;99.90
7654;DHT22;3869;48.406;10.774;2023-12-07T10:50:35;2.00;99.90
7654;DHT22;3869;48.406;10.774;2023-12-07T10:53:08;2.10;99.90
7654;DHT22;3869;48.406;10.774;2023-12-07T10:55:47;2.10;99.90
7654;DHT22;3869;48.406;10.774;2023-12-07T10:58:18;2.10;99.90
7654;DHT22;3869;48.406;10.774;2023-12-07T11:00:47;2.10;99.90
7654;DHT22;3869;48.406;10.774;2023-12-07T11:03:16;2.20;99.90
7654;DHT22;3869;48.406;10.774;2023-12-07T11:05:46;2.20;99.90
7654;DHT22;3869;48.406;10.774;2023-12-07T11:08:19;2.20;99.90
7654;DHT22;3869;48.406;10.774;2023-12-07T11:10:58;2.30;99.90
7654;DHT22;3869;48.406;10.774;2023-12-07T11:13:30;2.30;99.90
7654;DHT22;3869;48.406;10.774;2023-12-07T11:15:59;2.40;99.90
7654;DHT22;3869;48.406;10.774;2023-12-07T11:18:27;2.50;99.90
7654;DHT22;3869;48.406;10.774;2023-12-07T11:20:56;2.50;99.90
7654;DHT22;3869;48.406;10.774;2023-12-07T11:23:27;2.60;99.90
7654;DHT22;3869;48.406;10.774;2023-12-07T11:25:56;2.60;99.90
7654;DHT22;3869;48.406;10.774;2023-12-07T11:28:34;2.60;99.90
7654;DHT22;3869;48.406;10.774;2023-12-07T11:31:03;2.70;99.90
7654;DHT22;3869;48.406;10.774;2023-12-07T11:33:31;2.70;99.90
7654;DHT22;3869;48.406;10.774;2023-12-07T11:36:03;2.70;99.90
7654;DHT22;3869;48.406;10.774;2023-12-07T11:38:32;2.70;99.90
7654;DHT22;3869;48.406;10.774;2023-12-07T11:41:01;2.80;99.90
7654;DHT22;3869;48.406;10.774;2023-12-07T11:43:42;2.80;99.90
7654;DHT22;3869;48.406;10.774;2023-12-07T11:46:14;2.80;99.90
7654;DHT22;3869;48.406;10.774;2023-12-07T11:48:46;2.80;99.90
7654;DHT22;3869;48.406;10.774;2023-12-07T11:51:16;2.80;99.90
7654;DHT22;3869;48.406;10.774;2023-12-07T11:53:44;2.80;99.90
7654;DHT22;3869;48.406;10.774;2023-12-07T11:56:14;2.80;99.90
7654;DHT22;3869;48.406;10.774;2023-12-07T11:58:45;2.80;99.90
7654;DHT22;3869;48.406;10.774;2023-12-07T12:01:16;2.80;99.90
7654;DHT22;3869;48.406;10.774;2023-12-07T12:03:45;2.80;99.90
7654;DHT22;3869;48.406;10.774;2023-12-07T12:06:13;2.90;99.90
7654;DHT22;3869;48.406;10.774;2023-12-07T12:08:41;2.90;99.90
7654;DHT22;3869;48.406;10.774;2023-12-07T12:11:09;2.90;99.90
7654;DHT22;3869;48.406;10.774;2023-12-07T12:13:38;2.90;99.90
7654;DHT22;3869;48.406;10.774;2023-12-07T12:16:07;2.90;99.90
7654;DHT22;3869;48.406;10.774;2023-12-07T12:18:36;2.90;99.90
7654;DHT22;3869;48.406;10.774;2023-12-07T12:21:07;2.90;99.90
7654;DHT22;3869;48.406;10.774;2023-12-07T12:23:36;2.80;99.90
7654;DHT22;3869;48.406;10.774;2023-12-07T12:26:06;2.80;99.90
7654;DHT22;3869;48.406;10.774;2023-12-07T12:28:34;2.80;99.90
7654;DHT22;3869;48.406;10.774;2023-12-07T12:31:11;2.80;99.90
7654;DHT22;3869;48.406;10.774;2023-12-07T12:33:40;2.80;99.90
7654;DHT22;3869;48.406;10.774;2023-12-07T12:36:08;2.90;99.90
7654;DHT22;3869;48.406;10.774;2023-12-07T12:38:38;2.90;99.90
7654;DHT22;3869;48.406;10.774;2023-12-07T12:41:10;3.00;99.90
7654;DHT22;3869;48.406;10.774;2023-12-07T12:43:39;3.10;99.90
7654;DHT22;3869;48.406;10.774;2023-12-07T12:46:07;3.10;99.90
7654;DHT22;3869;48.406;10.774;2023-12-07T12:48:37;3.20;99.90
7654;DHT22;3869;48.406;10.774;2023-12-07T12:51:08;3.20;99.90
7654;DHT22;3869;48.406;10.774;2023-12-07T12:53:42;3.30;99.90
7654;DHT22;3869;48.406;10.774;2023-12-07T12:56:12;3.30;99.90
7654;DHT22;3869;48.406;10.774;2023-12-07T12:58:40;3.40;99.90
7654;DHT22;3869;48.406;10.774;2023-12-07T13:01:08;3.40;99.90
7654;DHT22;3869;48.406;10.774;2023-12-07T13:03:38;3.40;99.90
7654;DHT22;3869;48.406;10.774;2023-12-07T13:06:07;3.30;99.90
7654;DHT22;3869;48.406;10.774;2023-12-07T13:08:35;3.30;99.90
7654;DHT22;3869;48.406;10.774;2023-12-07T13:11:03;3.30;99.90
7654;DHT22;3869;48.406;10.774;2023-12-07T13:13:32;3.30;99.90
7654;DHT22;3869;48.406;10.774;2023-12-07T13:16:00;3.30;99.90
7654;DHT22;3869;48.406;10.774;2023-12-07T13:18:28;3.30;99.90
7654;DHT22;3869;48.406;10.774;2023-12-07T13:20:57;3.30;99.90
7654;DHT22;3869;48.406;10.774;2023-12-07T13:23:26;3.30;99.90
7654;DHT22;3869;48.406;10.774;2023-12-07T13:25:54;3.30;99.90
7654;DHT22;3869;48.406;10.774;2023-12-07T13:28:22;3.20;99.90
7654;DHT22;3869;48.406;10.774;2023-12-07T13:30:50;3.20;99.90
7654;DHT22;3869;48.406;10.774;2023-12-07T13:33:20;3.20;99.90
7654;DHT22;3869;48.406;10.774;2023-12-07T13:35:57;3.10;99.90
7654;DHT22;3869;48.406;10.774;2023-12-07T13:38:32;2.90;99.90
7654;DHT22;3869;48.406;10.774;2023-12-07T13:41:01;2.80;99.90
7654;DHT22;3869;48.406;10.774;2023-12-07T13:43:29;2.70;99.90
7654;DHT22;3869;48.406;10.774;2023-12-07T13:45:59;2.60;99.90
7654;DHT22;3869;48.406;10.774;2023-12-07T13:48:28;2.70;99.90
7654;DHT22;3869;48.406;10.774;2023-12-07T13:50:58;2.60;99.90
7654;DHT22;3869;48.406;10.774;2023-12-07T13:53:26;2.60;99.90
7654;DHT22;3869;48.406;10.774;2023-12-07T13:55:54;2.70;99.90
7654;DHT22;3869;48.406;10.774;2023-12-07T13:58:22;2.70;99.90
7654;DHT22;3869;48.406;10.774;2023-12-07T14:00:50;2.70;99.90
7654;DHT22;3869;48.406;10.774;2023-12-07T14:03:18;2.70;99.90
7654;DHT22;3869;48.406;10.774;2023-12-07T14:05:46;2.70;99.90
7654;DHT22;3869;48.406;10.774;2023-12-07T14:08:15;2.70;99.90
7654;DHT22;3869;48.406;10.774;2023-12-07T14:10:43;2.60;99.90
7654;DHT22;3869;48.406;10.774;2023-12-07T14:13:11;2.60;99.90
7654;DHT22;3869;48.406;10.774;2023-12-07T14:15:40;2.60;99.90
7654;DHT22;3869;48.406;10.774;2023-12-07T14:18:11;2.60;99.90
7654;DHT22;3869;48.406;10.774;2023-12-07T14:20:41;2.60;99.90
7654;DHT22;3869;48.406;10.774;2023-12-07T14:23:31;2.60;99.90
7654;DHT22;3869;48.406;10.774;2023-12-07T14:25:59;2.60;99.90
7654;DHT22;3869;48.406;10.774;2023-12-07T14:28:30;2.50;99.90
7654;DHT22;3869;48.406;10.774;2023-12-07T14:31:01;2.50;99.90
7654;DHT22;3869;48.406;10.774;2023-12-07T14:33:30;2.40;99.90
7654;DHT22;3869;48.406;10.774;2023-12-07T14:35:59;2.40;99.90
7654;DHT22;3869;48.406;10.774;2023-12-07T14:38:28;2.40;99.90
7654;DHT22;3869;48.406;10.774;2023-12-07T14:40:57;2.40;99.90
7654;DHT22;3869;48.406;10.774;2023-12-07T14:43:25;2.30;99.90
7654;DHT22;3869;48.406;10.774;2023-12-07T14:45:53;2.20;99.90
7654;DHT22;3869;48.406;10.774;2023-12-07T14:48:21;2.10;99.90
7654;DHT22;3869;48.406;10.774;2023-12-07T14:50:50;2.10;99.90
7654;DHT22;3869;48.406;10.774;2023-12-07T14:53:19;2.00;99.90
7654;DHT22;3869;48.406;10.774;2023-12-07T14:55:51;1.90;99.90
7654;DHT22;3869;48.406;10.774;2023-12-07T14:58:20;1.90;99.90
7654;DHT22;3869;48.406;10.774;2023-12-07T15:00:48;1.80;99.90
7654;DHT22;3869;48.406;10.774;2023-12-07T15:03:16;1.80;99.90
7654;DHT22;3869;48.406;10.774;2023-12-07T15:05:45;1.70;99.90
7654;DHT22;3869;48.406;10.774;2023-12-07T15:08:13;1.60;99.90
7654;DHT22;3869;48.406;10.774;2023-12-07T15:10:41;1.50;99.90
7654;DHT22;3869;48.406;10.774;2023-12-07T15:13:09;1.40;99.90
7654;DHT22;3869;48.406;10.774;2023-12-07T15:15:39;1.30;99.90
7654;DHT22;3869;48.406;10.774;2023-12-07T15:18:07;1.30;99.90
7654;DHT22;3869;48.406;10.774;2023-12-07T15:20:35;1.20;99.90
7654;DHT22;3869;48.406;10.774;2023-12-07T15:23:03;1.30;99.90
7654;DHT22;3869;48.406;10.774;2023-12-07T15:25:32;1.20;99.90
7654;DHT22;3869;48.406;10.774;2023-12-07T15:28:00;1.10;99.90
7654;DHT22;3869;48.406;10.774;2023-12-07T15:30:28;1.00;99.90
7654;DHT22;3869;48.406;10.774;2023-12-07T15:32:58;0.90;99.90
7654;DHT22;3869;48.406;10.774;2023-12-07T15:35:26;0.80;99.90
7654;DHT22;3869;48.406;10.774;2023-12-07T15:37:54;0.70;99.90
7654;DHT22;3869;48.406;10.774;2023-12-07T15:40:22;0.60;99.90
7654;DHT22;3869;48.406;10.774;2023-12-07T15:42:50;0.60;99.90
7654;DHT22;3869;48.406;10.774;2023-12-07T15:45:18;0.60;99.90
7654;DHT22;3869;48.406;10.774;2023-12-07T15:47:46;0.60;99.90
7654;DHT22;3869;48.406;10.774;2023-12-07T15:50:16;0.50;99.90
7654;DHT22;3869;48.406;10.774;2023-12-07T15:52:44;0.50;99.90
7654;DHT22;3869;48.406;10.774;2023-12-07T15:55:12;0.30;99.90
7654;DHT22;3869;48.406;10.774;2023-12-07T15:57:42;0.20;99.90
7654;DHT22;3869;48.406;10.774;2023-12-07T16:00:12;0.20;99.90
7654;DHT22;3869;48.406;10.774;2023-12-07T16:02:40;0.20;99.90
7654;DHT22;3869;48.406;10.774;2023-12-07T16:05:08;0.10;99.90
7654;DHT22;3869;48.406;10.774;2023-12-07T16:07:38;0.10;99.90
7654;DHT22;3869;48.406;10.774;2023-12-07T16:10:07;0.00;99.90
7654;DHT22;3869;48.406;10.774;2023-12-07T16:12:36;0.00;99.90